Terminal Aerodrome Forecast
Issued by NWS

Home | Current Version | Previous Version | Text Only | Print | Product List | Glossary On
Versions: 1 2 3 4 5 6 7 8 9 10 11 12 13 14 15 16 17 18 19 20 21 22 23 24 25 26
000
FTUS45 KRIW 161123
TAFRKS
TAF
KRKS 161123Z 1612/1712 08007KT P6SM SCT250
     FM161600 21006KT P6SM SCT250
     FM161800 25013G20KT P6SM SCT090
     FM170400 29009KT P6SM SCT120=

USA.gov is the U.S. government's official web portal to all federal, state and local government web resources and services.